Archival Weather

Barra Do Garcas

Barra Do Garcas, Brazil (SBBW)

Report from: Saturday, December 2, 2023 5:00 PM -03
Current time: Wednesday, April 24, 2024 3:44 PM -03

Current weather – Weather history – Daily summaries
Weather forecast

Temperature28.0°C (82.4°F)
Heat index32.0°C (89.6°F)
Dew point24.0°C (75.2°F)
Winds 4 kts (2.1 m/s, 4.6 mph) Northeast (50°)
Visibility6.2 mi. (10 km)
Clouds Few clouds 2,000 ft. (610 m)
Scattered clouds 8,000 ft. (2,438 m)
Ceiling: Broken clouds 9,000 ft. (2,743 m)
Altimeter29.77 in.Hg (1008 mB)
Relative humidity79 %
Density altitude2,072 ft. (632 m)
Flight conditions Visual Meteorological Conditions
Raw dataSBBW 022000Z 05004KT 9999 FEW020 SCT080 BKN090 28/24 Q1008 RETS
An error has occurred. This application may no longer respond until reloaded. Reload 🗙